Time;durP1;ratioP1;P1;durP2;ratioP2;P2;SDS_P1;SDS_P2;PMS_P1;PMS_P2;Temp;Humidity;BMP_temperature;BMP_pressure;BME280_temperature;BME280_humidity;BME280_pressure;Samples;Min_cycle;Max_cycle;Signal;HPM_P1;HPM_P2
2021/11/20 00:01:06;;;;;;;12.07;5.63;;;8.80;99.90;;;9.56;100.00;99483.41;5064201;28;20460;-82
2021/11/20 00:03:39;;;;;;;20.70;6.10;;;8.80;99.90;;;9.56;100.00;99474.75;5070714;28;20440;-82
2021/11/20 00:06:08;;;;;;;12.07;5.80;;;8.80;99.90;;;9.52;100.00;99470.78;5065697;28;20842;-82
2021/11/20 00:08:37;;;;;;;12.63;5.63;;;8.80;99.90;;;9.50;100.00;99462.28;5069218;28;20538;-82
2021/11/20 00:11:08;;;;;;;8.50;5.30;;;8.70;99.90;;;9.52;100.00;99465.56;5066684;28;20484;-82
2021/11/20 00:13:37;;;;;;;11.03;5.07;;;8.80;99.90;;;9.52;100.00;99461.16;5071341;28;20475;-82
2021/11/20 00:16:08;;;;;;;12.10;5.13;;;8.70;99.90;;;9.49;100.00;99456.25;5061666;28;21245;-82
2021/11/20 00:18:39;;;;;;;13.23;6.17;;;8.70;99.90;;;9.48;100.00;99456.38;5064520;28;20486;-83
2021/11/20 00:21:13;;;;;;;13.07;6.47;;;8.70;99.90;;;9.48;100.00;99458.97;5066311;28;20508;-82
2021/11/20 00:23:46;;;;;;;6.13;4.93;;;8.70;99.90;;;9.50;100.00;99457.91;5063558;28;20913;-82
2021/11/20 00:26:19;;;;;;;12.20;6.00;;;8.70;99.90;;;9.45;100.00;99454.88;5059738;28;20492;-82
2021/11/20 00:31:42;;;;;;;16.77;5.53;;;8.60;99.90;;;9.48;100.00;99454.59;5067591;28;20456;-83
2021/11/20 00:34:16;;;;;;;8.33;5.03;;;8.70;99.90;;;9.48;100.00;99448.53;5065630;28;20468;-82
2021/11/20 00:36:45;;;;;;;6.77;4.93;;;8.70;99.90;;;9.46;100.00;99446.09;5067246;28;20463;-82
2021/11/20 00:39:17;;;;;;;10.53;5.13;;;8.70;99.90;;;9.46;100.00;99446.09;5060576;28;20549;-82
2021/11/20 00:41:47;;;;;;;9.60;5.17;;;8.70;99.90;;;9.46;100.00;99435.66;5066926;28;20531;-82
2021/11/20 00:44:17;;;;;;;10.50;6.40;;;8.60;99.90;;;9.45;100.00;99430.56;5064274;28;20542;-82
2021/11/20 00:46:48;;;;;;;10.03;5.73;;;8.70;99.90;;;9.45;100.00;99434.00;5063306;28;20494;-82
2021/11/20 00:49:20;;;;;;;15.20;4.50;;;8.70;99.90;;;9.47;100.00;99428.63;5060225;28;20496;-82
2021/11/20 00:51:50;;;;;;;8.73;5.53;;;8.70;99.90;;;9.47;100.00;99431.25;5065150;28;20463;-82
2021/11/20 00:54:20;;;;;;;13.00;5.70;;;8.60;99.90;;;9.43;100.00;99420.28;5067316;28;20854;-82
2021/11/20 00:56:49;;;;;;;10.83;5.73;;;8.60;99.90;;;9.39;100.00;99420.72;5060254;28;20472;-82
2021/11/20 00:59:18;;;;;;;38.17;6.60;;;8.60;99.90;;;9.37;100.00;99418.22;5062885;28;20471;-82
2021/11/20 01:01:53;;;;;;;12.80;6.00;;;8.50;99.90;;;9.35;100.00;99422.78;5065260;28;21033;-82
2021/11/20 01:04:25;;;;;;;12.07;5.07;;;8.40;99.90;;;9.38;100.00;99429.50;5066687;28;20457;-82
2021/11/20 01:06:56;;;;;;;12.37;6.27;;;8.50;99.90;;;9.38;100.00;99424.28;5055158;28;20879;-82
2021/11/20 01:09:30;;;;;;;13.97;5.53;;;8.50;99.90;;;9.34;100.00;99431.56;5053550;28;20871;-82
2021/11/20 01:12:05;;;;;;;10.93;5.23;;;8.50;99.90;;;9.36;100.00;99428.84;5065756;28;20522;-83
2021/11/20 01:14:36;;;;;;;14.07;4.80;;;8.50;99.90;;;9.36;100.00;99421.81;5066607;28;21002;-83
2021/11/20 01:17:09;;;;;;;19.43;5.57;;;8.50;99.90;;;9.36;100.00;99421.00;5061545;28;20491;-83
2021/11/20 01:19:39;;;;;;;10.50;4.60;;;8.50;99.90;;;9.36;100.00;99423.59;5060418;28;20461;-82
2021/11/20 01:22:12;;;;;;;14.43;5.73;;;8.50;99.90;;;9.35;100.00;99417.56;5059709;28;20461;-82
2021/11/20 01:24:42;;;;;;;11.27;5.23;;;8.50;99.90;;;9.31;100.00;99421.44;5059990;28;21026;-83
2021/11/20 01:27:13;;;;;;;6.33;4.93;;;8.40;99.90;;;9.32;100.00;99423.06;5060792;28;20558;-82
2021/11/20 01:29:41;;;;;;;10.90;5.10;;;8.40;99.90;;;9.33;100.00;99426.50;5068838;28;20460;-83
2021/11/20 01:32:10;;;;;;;10.40;4.90;;;8.50;99.90;;;9.30;100.00;99427.59;5062693;28;20464;-82
2021/11/20 01:34:41;;;;;;;10.07;4.70;;;8.50;99.90;;;9.25;100.00;99419.41;5062664;28;20516;-82
2021/11/20 01:37:10;;;;;;;9.60;5.00;;;8.40;99.90;;;9.29;100.00;99427.78;5061886;28;20498;-82
2021/11/20 01:39:40;;;;;;;8.67;5.27;;;8.40;99.90;;;9.30;100.00;99419.78;5068363;28;20457;-83
2021/11/20 01:42:13;;;;;;;9.40;5.00;;;8.50;99.90;;;9.33;100.00;99419.50;5064560;28;20522;-83
2021/11/20 01:44:49;;;;;;;7.87;4.37;;;8.50;99.90;;;9.30;100.00;99419.78;5068421;28;20995;-82
2021/11/20 01:47:24;;;;;;;12.73;5.43;;;8.40;99.90;;;9.28;100.00;99420.91;5062933;28;20534;-83
2021/11/20 01:49:59;;;;;;;18.10;5.17;;;8.40;99.90;;;9.27;100.00;99412.25;5066813;28;21019;-83
2021/11/20 01:52:46;;;;;;;11.03;5.33;;;8.40;99.90;;;9.25;100.00;99414.19;5062129;28;20452;-83
2021/11/20 01:55:32;;;;;;;13.20;5.50;;;8.30;99.90;;;9.27;100.00;99412.25;5063545;28;20480;-82
2021/11/20 01:58:13;;;;;;;8.97;5.40;;;8.40;99.90;;;9.26;100.00;99409.78;5061671;28;20525;-83
2021/11/20 02:00:47;;;;;;;12.50;4.63;;;8.40;99.90;;;9.26;100.00;99399.34;5055968;28;20516;-83
2021/11/20 02:03:26;;;;;;;8.53;5.40;;;8.40;99.90;;;9.24;100.00;99404.69;5067812;28;20439;-83
2021/11/20 02:06:12;;;;;;;18.17;5.23;;;8.50;99.90;;;9.22;100.00;99390.16;5067304;28;20484;-82
2021/11/20 02:08:52;;;;;;;11.33;4.40;;;8.50;99.90;;;9.25;100.00;99390.69;5059435;28;20496;-82
2021/11/20 02:11:25;;;;;;;7.53;5.00;;;8.60;99.90;;;9.25;100.00;99395.91;5061510;28;20956;-83
2021/11/20 02:13:56;;;;;;;10.40;4.63;;;8.50;99.90;;;9.26;100.00;99381.91;5061440;28;20517;-83
2021/11/20 02:16:28;;;;;;;11.20;5.90;;;8.50;99.90;;;9.27;100.00;99378.31;5060893;28;20504;-83
2021/11/20 02:19:01;;;;;;;14.43;5.90;;;8.50;99.90;;;9.29;100.00;99386.84;5057175;28;20482;-83
2021/11/20 02:21:40;;;;;;;11.80;4.93;;;8.50;99.90;;;9.26;100.00;99384.50;5065655;28;20514;-83
2021/11/20 02:24:08;;;;;;;15.67;5.77;;;8.50;99.90;;;9.21;100.00;99378.91;5060704;28;20467;-83
2021/11/20 02:26:36;;;;;;;11.67;5.87;;;8.40;99.90;;;9.25;100.00;99377.66;5065103;28;20464;-82
2021/11/20 02:29:11;;;;;;;10.20;5.90;;;8.40;99.90;;;9.23;100.00;99371.75;5066462;28;20529;-83
2021/11/20 02:31:45;;;;;;;14.10;6.00;;;8.40;99.90;;;9.22;100.00;99369.28;5062107;28;20521;-82
2021/11/20 02:34:20;;;;;;;11.87;5.97;;;8.30;99.90;;;9.21;100.00;99367.63;5065144;28;20517;-83
2021/11/20 02:36:49;;;;;;;12.13;6.07;;;8.30;99.90;;;9.20;100.00;99366.00;5063668;28;20499;-83
2021/11/20 02:39:21;;;;;;;13.43;5.73;;;8.30;99.90;;;9.15;100.00;99360.38;5058505;28;20464;-82
2021/11/20 02:41:54;;;;;;;9.60;5.33;;;8.20;99.90;;;9.13;100.00;99359.72;5066087;28;20859;-82
2021/11/20 02:44:26;;;;;;;8.97;4.97;;;8.20;99.90;;;9.07;100.00;99363.72;5063467;28;20491;-83
2021/11/20 02:47:00;;;;;;;11.87;5.30;;;8.20;99.90;;;9.10;100.00;99360.81;5059137;28;20493;-82
2021/11/20 02:49:30;;;;;;;9.37;5.30;;;8.30;99.90;;;9.11;100.00;99367.69;5061706;28;20498;-83
2021/11/20 02:52:03;;;;;;;11.00;5.43;;;8.30;99.90;;;9.12;100.00;99360.69;5061295;28;20468;-83
2021/11/20 02:54:33;;;;;;;19.13;6.60;;;8.30;99.90;;;9.14;100.00;99364.78;5060249;28;21156;-83
2021/11/20 02:57:07;;;;;;;10.30;5.43;;;8.30;99.90;;;9.13;100.00;99355.31;5063507;28;20560;-82
2021/11/20 02:59:37;;;;;;;10.17;4.90;;;8.30;99.90;;;9.12;100.00;99353.69;5056560;28;20459;-82
2021/11/20 03:02:08;;;;;;;10.90;5.50;;;8.30;99.90;;;9.13;100.00;99342.25;5055183;28;20452;-84
2021/11/20 03:04:38;;;;;;;7.53;4.40;;;8.30;99.90;;;9.13;100.00;99349.28;5053249;28;20499;-83
2021/11/20 03:07:07;;;;;;;8.60;5.20;;;8.30;99.90;;;9.15;100.00;99348.16;5061927;28;20529;-83
2021/11/20 03:09:38;;;;;;;9.40;4.93;;;8.40;99.90;;;9.14;100.00;99346.53;5065928;28;20887;-83
2021/11/20 03:12:12;;;;;;;8.60;4.87;;;8.40;99.90;;;9.14;100.00;99345.69;5058587;28;20456;-82
2021/11/20 03:14:42;;;;;;;10.33;4.37;;;8.30;99.90;;;9.14;100.00;99338.69;5065390;28;20917;-82
2021/11/20 03:17:12;;;;;;;5.70;4.23;;;8.30;99.90;;;9.13;100.00;99329.22;5071611;28;20796;-83
2021/11/20 03:19:44;;;;;;;9.63;5.30;;;8.30;99.90;;;9.13;100.00;99333.63;5058114;28;20464;-82
2021/11/20 03:22:17;;;;;;;8.30;4.07;;;8.30;99.90;;;9.13;100.00;99333.63;5065050;28;20515;-83
2021/11/20 03:24:47;;;;;;;6.70;4.40;;;8.30;99.90;;;9.09;100.00;99320.06;5065502;28;21034;-82
2021/11/20 03:27:15;;;;;;;7.87;4.63;;;8.30;99.90;;;9.06;100.00;99315.94;5066965;28;20460;-82
2021/11/20 03:29:44;;;;;;;12.33;4.37;;;8.20;99.90;;;9.05;100.00;99310.88;5062724;28;21049;-82
2021/11/20 03:32:14;;;;;;;7.20;4.13;;;8.20;99.90;;;9.08;100.00;99303.56;5058381;28;21109;-82
2021/11/20 03:34:44;;;;;;;7.77;4.70;;;8.20;99.90;;;9.08;100.00;99305.34;5057264;28;20985;-82
2021/11/20 03:37:13;;;;;;;13.80;4.63;;;8.20;99.90;;;9.08;100.00;99307.97;5065047;28;20495;-82
2021/11/20 03:39:43;;;;;;;9.03;4.30;;;8.30;99.90;;;9.09;100.00;99307.81;5061751;28;20515;-82
2021/11/20 03:42:12;;;;;;;12.93;4.93;;;8.20;99.90;;;9.08;100.00;99294.91;5066146;28;20525;-82
2021/11/20 03:44:41;;;;;;;18.90;5.17;;;8.20;99.90;;;9.06;100.00;99300.28;5064801;28;20482;-83
2021/11/20 03:47:10;;;;;;;7.10;4.83;;;8.20;99.90;;;9.05;100.00;99284.78;5059851;28;20524;-82
2021/11/20 03:49:42;;;;;;;6.87;3.80;;;8.20;99.90;;;9.02;100.00;99290.31;5060266;28;20465;-83
2021/11/20 03:52:11;;;;;;;6.10;4.60;;;8.00;99.90;;;9.01;100.00;99288.66;5066231;28;20952;-83
2021/11/20 03:54:41;;;;;;;9.70;4.60;;;8.10;99.90;;;9.03;100.00;99282.31;5072473;28;20505;-82
2021/11/20 03:57:10;;;;;;;8.67;4.63;;;8.10;99.90;;;9.01;100.00;99288.66;5063359;28;20499;-83
2021/11/20 03:59:38;;;;;;;12.40;4.07;;;8.20;99.90;;;9.00;100.00;99287.00;5068420;28;20496;-83
2021/11/20 04:02:07;;;;;;;7.53;3.73;;;8.10;99.90;;;8.98;100.00;99300.19;5065780;28;20463;-82
2021/11/20 04:04:36;;;;;;;7.73;4.10;;;8.10;99.90;;;8.96;100.00;99293.47;5067108;28;20493;-83
2021/11/20 04:07:06;;;;;;;6.63;3.77;;;8.00;99.90;;;8.98;100.00;99294.16;5063546;28;20519;-83
2021/11/20 04:09:35;;;;;;;7.20;3.87;;;8.10;99.90;;;8.98;100.00;99295.00;5063465;28;20459;-82
2021/11/20 04:12:05;;;;;;;10.83;6.30;;;8.10;99.90;;;8.99;100.00;99295.78;5067061;28;20993;-83
2021/11/20 04:14:33;;;;;;;9.17;4.00;;;8.10;99.90;;;8.95;100.00;99289.25;5069515;28;20444;-83
2021/11/20 04:17:03;;;;;;;6.93;4.57;;;8.10;99.90;;;8.97;100.00;99292.50;5062207;28;20488;-83
2021/11/20 04:19:32;;;;;;;13.83;3.90;;;8.10;99.90;;;8.98;100.00;99281.13;5068743;28;21143;-83
2021/11/20 04:22:00;;;;;;;7.00;3.60;;;8.20;99.90;;;8.94;100.00;99279.75;5072700;28;20968;-82
2021/11/20 04:24:33;;;;;;;9.00;4.17;;;8.00;99.90;;;8.94;100.00;99271.94;5068315;28;20456;-83
2021/11/20 04:27:01;;;;;;;6.13;3.73;;;8.10;99.90;;;8.95;100.00;99273.59;5064642;28;20530;-82
2021/11/20 04:29:30;;;;;;;7.17;4.23;;;8.10;99.90;;;8.95;100.00;99263.16;5059468;28;20464;-83
2021/11/20 04:31:59;;;;;;;6.93;3.97;;;8.10;99.90;;;8.95;100.00;99258.75;5067492;28;20525;-82
2021/11/20 04:34:28;;;;;;;10.03;4.57;;;8.20;99.90;;;8.98;100.00;99262.84;5060281;28;20538;-82
2021/11/20 04:36:57;;;;;;;13.40;4.53;;;8.20;99.90;;;8.96;100.00;99257.78;5062567;28;20492;-84
2021/11/20 04:39:26;;;;;;;13.23;4.50;;;8.20;99.90;;;8.98;100.00;99257.63;5054053;28;20469;-83
2021/11/20 04:41:55;;;;;;;7.37;4.30;;;8.20;99.90;;;8.95;100.00;99256.16;5060137;28;20511;-82
2021/11/20 04:44:25;;;;;;;8.10;3.90;;;8.10;99.90;;;8.94;100.00;99256.28;5058452;28;20496;-82
2021/11/20 04:46:54;;;;;;;4.50;4.10;;;8.10;99.90;;;8.90;100.00;99252.31;5057659;28;20540;-84
2021/11/20 04:49:23;;;;;;;9.60;3.47;;;8.00;99.90;;;8.84;100.00;99245.91;5056094;28;20460;-82
2021/11/20 04:51:51;;;;;;;7.70;4.30;;;7.90;99.90;;;8.84;100.00;99245.09;5058092;28;20538;-83
2021/11/20 04:54:20;;;;;;;8.33;4.17;;;7.90;99.90;;;8.86;100.00;99250.97;5066300;28;21042;-83
2021/11/20 04:56:49;;;;;;;6.47;3.60;;;8.00;99.90;;;8.87;100.00;99243.00;5065688;28;21069;-83
2021/11/20 04:59:19;;;;;;;6.97;3.70;;;8.10;99.90;;;8.87;100.00;99239.59;5059440;28;20949;-83
2021/11/20 05:01:48;;;;;;;8.00;4.00;;;8.10;99.90;;;8.86;100.00;99241.38;5057759;28;20456;-83
2021/11/20 05:04:17;;;;;;;6.50;3.97;;;8.10;99.90;;;8.87;100.00;99240.41;5062090;28;20455;-83
2021/11/20 05:06:45;;;;;;;8.20;3.73;;;8.00;99.90;;;8.86;100.00;99238.75;5070949;28;20463;-83
2021/11/20 05:09:14;;;;;;;10.93;6.17;;;8.10;99.90;;;8.84;100.00;99239.88;5066540;28;20464;-82
2021/11/20 05:11:44;;;;;;;6.13;4.43;;;8.10;99.90;;;8.83;100.00;99233.84;5062780;28;20953;-83
2021/11/20 05:14:12;;;;;;;14.60;3.97;;;8.00;99.90;;;8.83;100.00;99233.00;5067953;28;20506;-83
2021/11/20 05:16:42;;;;;;;6.80;3.90;;;8.00;99.90;;;8.82;100.00;99226.97;5066646;28;20468;-83
2021/11/20 05:19:11;;;;;;;7.93;3.97;;;8.00;99.90;;;8.84;100.00;99229.44;5063195;28;20452;-82
2021/11/20 05:21:40;;;;;;;5.33;3.70;;;8.00;99.90;;;8.84;100.00;99232.06;5068510;28;20518;-83
2021/11/20 05:24:09;;;;;;;6.50;3.60;;;8.10;99.90;;;8.84;100.00;99232.88;5061101;28;20504;-82
2021/11/20 05:26:37;;;;;;;10.17;3.27;;;8.10;99.90;;;8.81;100.00;99234.97;5059575;28;20969;-84
2021/11/20 05:29:08;;;;;;;9.07;4.60;;;8.00;99.90;;;8.80;100.00;99230.69;5069376;28;20890;-85
2021/11/20 05:31:39;;;;;;;11.20;5.30;;;7.90;99.90;;;8.79;100.00;99236.88;5070514;28;21078;-84
2021/11/20 05:34:09;;;;;;;7.67;3.80;;;8.00;99.90;;;8.78;100.00;99232.66;5060154;28;20445;-82
2021/11/20 05:36:39;;;;;;;7.63;3.63;;;8.00;99.90;;;8.79;100.00;99223.84;5068807;28;20513;-83
2021/11/20 05:39:08;;;;;;;9.93;3.73;;;7.90;99.90;;;8.76;100.00;99221.53;5065095;28;20500;-83
2021/11/20 05:41:37;;;;;;;7.90;3.80;;;7.90;99.90;;;8.71;100.00;99219.34;5068200;28;21034;-83
2021/11/20 05:44:08;;;;;;;5.93;3.60;;;7.90;99.90;;;8.71;100.00;99216.72;5075648;28;20464;-83
2021/11/20 05:46:37;;;;;;;7.80;3.73;;;7.90;99.90;;;8.66;100.00;99215.53;5063758;28;20487;-83
2021/11/20 05:49:06;;;;;;;12.43;3.90;;;7.90;99.90;;;8.63;100.00;99221.06;5067711;28;20448;-83
2021/11/20 05:51:37;;;;;;;5.33;3.30;;;7.80;99.90;;;8.64;100.00;99218.31;5070475;28;20448;-83
2021/11/20 05:54:06;;;;;;;9.27;3.93;;;7.80;99.90;;;8.63;100.00;99221.06;5068305;28;20452;-83
2021/11/20 05:56:35;;;;;;;12.90;4.40;;;7.90;99.90;;;8.55;100.00;99220.00;5070038;28;20670;-83
2021/11/20 05:59:25;;;;;;;6.80;3.60;;;7.70;99.90;;;8.52;100.00;99222.06;5067842;28;20959;-83
2021/11/20 06:01:54;;;;;;;8.80;3.87;;;7.60;99.90;;;8.53;100.00;99218.50;5068541;28;20521;-83
2021/11/20 06:04:23;;;;;;;7.77;3.50;;;7.70;99.90;;;8.57;100.00;99220.66;5069958;28;20838;-83
2021/11/20 06:06:53;;;;;;;5.87;3.67;;;7.80;99.90;;;8.57;100.00;99223.25;5068101;28;20452;-83
2021/11/20 06:09:22;;;;;;;10.00;4.53;;;7.70;99.90;;;8.59;100.00;99216.13;5060280;28;20461;-83
2021/11/20 06:11:51;;;;;;;6.00;3.80;;;7.80;99.90;;;8.62;100.00;99219.41;5068653;28;20494;-83
2021/11/20 06:14:19;;;;;;;7.80;3.87;;;7.90;99.90;;;8.61;100.00;99218.59;5070010;28;20459;-83
2021/11/20 06:16:48;;;;;;;5.40;3.50;;;7.80;99.90;;;8.61;100.00;99220.41;5068356;28;20818;-83
2021/11/20 06:19:17;;;;;;;9.40;4.43;;;7.80;99.90;;;8.60;100.00;99211.75;5069217;28;21000;-83
2021/11/20 06:21:46;;;;;;;8.20;3.63;;;7.70;99.90;;;8.55;100.00;99204.34;5068532;28;20463;-83
2021/11/20 06:24:17;;;;;;;4.87;3.57;;;7.70;99.90;;;8.52;100.00;99215.06;5066350;28;20540;-83
2021/11/20 06:26:46;;;;;;;4.70;3.93;;;7.70;99.90;;;8.53;100.00;99213.28;5069624;28;20456;-83
2021/11/20 06:29:16;;;;;;;6.00;3.90;;;7.70;99.90;;;8.48;100.00;99215.50;5066653;28;20440;-83
2021/11/20 06:31:47;;;;;;;6.97;4.07;;;7.60;99.90;;;8.46;100.00;99209.63;5069716;28;20521;-83
2021/11/20 06:34:20;;;;;;;13.10;4.40;;;7.60;99.90;;;8.48;100.00;99203.28;5069387;28;21229;-83
2021/11/20 06:36:49;;;;;;;13.53;4.17;;;7.70;99.90;;;8.51;100.00;99212.59;5069658;28;20480;-83
2021/11/20 06:39:19;;;;;;;9.40;3.83;;;7.70;99.90;;;8.51;100.00;99213.44;5069049;28;20568;-83
2021/11/20 06:41:48;;;;;;;6.30;3.83;;;7.60;99.90;;;8.52;100.00;99209.84;5060475;28;20663;-83
2021/11/20 06:44:17;;;;;;;9.80;3.87;;;7.70;99.90;;;8.46;100.00;99207.84;5064252;28;20469;-83
2021/11/20 06:46:46;;;;;;;4.73;3.63;;;7.60;99.90;;;8.47;100.00;99211.25;5067552;28;20523;-83
2021/11/20 06:49:15;;;;;;;5.63;3.60;;;7.60;99.90;;;8.49;100.00;99209.31;5066891;28;20516;-84
2021/11/20 06:51:43;;;;;;;9.80;3.87;;;7.60;99.90;;;8.50;100.00;99211.78;5069458;28;20456;-83
2021/11/20 06:54:12;;;;;;;9.00;4.10;;;7.60;99.90;;;8.50;100.00;99209.16;5069230;28;21022;-83
2021/11/20 06:56:48;;;;;;;7.03;3.93;;;7.70;99.90;;;8.49;100.00;99210.16;5069042;28;20448;-83
2021/11/20 07:00:25;;;;;;;7.70;4.20;;;7.60;99.90;;;8.47;100.00;99216.47;5064831;28;20549;-83
2021/11/20 07:02:10;;;;;;;4.10;3.37;;;7.60;99.90;;;8.45;100.00;99213.19;5066726;28;20517;-83
2021/11/20 07:04:39;;;;;;;10.73;3.83;;;7.60;99.90;;;8.48;100.00;99208.50;5069555;28;20498;-83
2021/11/20 07:07:13;;;;;;;8.10;4.17;;;7.50;99.90;;;8.45;100.00;99207.97;5069108;28;20514;-83
2021/11/20 07:09:42;;;;;;;5.37;3.67;;;7.60;99.90;;;8.47;100.00;99206.84;5068403;28;20463;-83
2021/11/20 07:12:12;;;;;;;10.53;3.57;;;7.80;99.90;;;8.49;100.00;99212.75;5069307;28;20444;-83
2021/11/20 07:14:41;;;;;;;6.73;3.53;;;7.80;99.90;;;8.50;100.00;99206.56;5068327;28;20484;-83
2021/11/20 07:17:11;;;;;;;5.10;3.60;;;7.70;99.90;;;8.49;100.00;99199.72;5059326;28;20452;-83
2021/11/20 07:19:40;;;;;;;9.07;3.90;;;7.70;99.90;;;8.43;100.00;99202.09;5069267;28;20561;-83
2021/11/20 07:22:08;;;;;;;8.50;3.87;;;7.70;99.90;;;8.46;100.00;99199.19;5069480;28;20493;-83
2021/11/20 07:24:37;;;;;;;10.53;3.80;;;7.70;99.90;;;8.46;100.00;99200.03;5069058;28;20553;-83
2021/11/20 07:27:06;;;;;;;5.50;4.10;;;7.60;99.90;;;8.43;100.00;99200.31;5060040;28;20460;-83
2021/11/20 07:29:36;;;;;;;11.63;3.97;;;7.60;99.90;;;8.42;100.00;99193.44;5062961;28;20925;-83
2021/11/20 07:32:07;;;;;;;7.80;3.50;;;7.50;99.90;;;8.43;100.00;99189.88;5063159;28;20448;-83
2021/11/20 07:34:36;;;;;;;7.53;4.03;;;7.60;99.90;;;8.47;100.00;99195.59;5075285;28;20450;-83
2021/11/20 07:37:06;;;;;;;12.47;4.10;;;7.70;99.90;;;8.50;100.00;99196.13;5072999;28;20444;-83
2021/11/20 07:39:34;;;;;;;4.67;3.50;;;7.70;99.90;;;8.53;100.00;99195.88;5069992;28;20510;-83
2021/11/20 07:42:04;;;;;;;7.10;4.43;;;7.70;99.90;;;8.53;100.00;99189.84;5066556;28;20498;-83
2021/11/20 07:44:33;;;;;;;8.37;3.20;;;7.70;99.90;;;8.55;100.00;99198.31;5070657;28;20460;-83
2021/11/20 07:47:04;;;;;;;8.03;3.70;;;7.80;99.90;;;8.58;100.00;99198.84;5072201;28;21023;-82
2021/11/20 07:49:33;;;;;;;7.17;3.93;;;7.80;99.90;;;8.59;100.00;99200.50;5066758;28;20944;-83
2021/11/20 07:52:01;;;;;;;10.53;4.10;;;7.80;99.90;;;8.63;100.00;99187.16;5072458;28;20801;-83
2021/11/20 07:54:31;;;;;;;9.17;5.10;;;7.80;99.90;;;8.65;100.00;99180.81;5072011;28;20460;-83
2021/11/20 07:56:59;;;;;;;6.47;4.90;;;7.90;99.90;;;8.66;100.00;99179.03;5072580;28;20521;-83
2021/11/20 07:59:28;;;;;;;8.83;4.67;;;7.90;99.90;;;8.67;100.00;99178.91;5063835;28;20495;-83
2021/11/20 08:02:03;;;;;;;7.60;4.90;;;7.90;99.90;;;8.69;100.00;99181.34;5065319;28;20459;-83
2021/11/20 08:04:35;;;;;;;7.10;4.43;;;7.90;99.90;;;8.72;100.00;99178.44;5064595;28;20479;-83
2021/11/20 08:07:05;;;;;;;10.27;5.23;;;7.90;99.90;;;8.74;100.00;99181.75;5061184;28;20460;-84
2021/11/20 08:09:34;;;;;;;21.20;12.40;;;7.90;99.90;;;8.75;100.00;99175.53;5070854;28;20469;-83
2021/11/20 08:12:05;;;;;;;8.53;4.73;;;7.90;99.90;;;8.78;100.00;99175.28;5072066;28;20937;-83
2021/11/20 08:14:34;;;;;;;7.53;4.83;;;7.90;99.90;;;8.80;100.00;99173.31;5075276;28;20452;-83
2021/11/20 08:17:04;;;;;;;7.67;4.57;;;8.10;99.90;;;8.82;100.00;99163.56;5071658;28;20448;-83
2021/11/20 08:19:35;;;;;;;7.30;5.10;;;8.00;99.90;;;8.83;100.00;99171.25;5069335;28;20492;-83
2021/11/20 08:22:04;;;;;;;8.33;4.77;;;8.00;99.90;;;8.86;100.00;99163.13;5071310;28;20467;-83
2021/11/20 08:24:33;;;;;;;8.63;5.37;;;8.10;99.90;;;8.90;100.00;99163.66;5068525;28;20482;-83
2021/11/20 08:27:07;;;;;;;9.00;4.50;;;8.20;99.90;;;8.91;100.00;99162.69;5072210;28;20470;-83
2021/11/20 08:29:37;;;;;;;7.27;4.90;;;8.30;99.90;;;8.92;100.00;99159.91;5071621;28;20463;-83
2021/11/20 08:32:10;;;;;;;7.73;4.60;;;8.30;99.90;;;8.94;100.00;99157.16;5072500;28;20451;-83
2021/11/20 08:34:42;;;;;;;12.13;5.03;;;8.20;99.90;;;8.95;100.00;99153.59;5065633;28;20495;-83
2021/11/20 08:37:14;;;;;;;8.70;4.80;;;8.20;99.90;;;8.97;100.00;99149.03;5067648;28;20451;-83
2021/11/20 08:39:43;;;;;;;9.03;4.90;;;8.30;99.90;;;9.02;100.00;99150.22;5070691;28;20553;-83
2021/11/20 08:42:14;;;;;;;7.40;4.47;;;8.30;99.90;;;9.03;100.00;99138.81;5071484;28;20513;-84
2021/11/20 08:44:42;;;;;;;7.57;5.20;;;8.30;99.90;;;9.05;100.00;99139.50;5071305;28;20523;-84
2021/11/20 08:47:17;;;;;;;7.10;5.00;;;8.40;99.90;;;9.10;100.00;99141.66;5071128;28;20842;-84
2021/11/20 08:49:46;;;;;;;10.30;5.80;;;8.50;99.90;;;9.13;100.00;99146.56;5072171;28;20479;-83
2021/11/20 08:52:15;;;;;;;7.67;4.77;;;8.50;99.90;;;9.17;100.00;99139.25;5071367;28;20506;-83
2021/11/20 08:54:44;;;;;;;8.17;5.10;;;8.50;99.90;;;9.18;100.00;99139.09;5071449;28;20444;-83
2021/11/20 08:57:13;;;;;;;9.63;5.90;;;8.50;99.90;;;9.22;100.00;99139.63;5064863;28;20452;-83
2021/11/20 08:59:42;;;;;;;12.50;5.57;;;8.50;99.90;;;9.25;100.00;99137.53;5063190;28;20492;-83
2021/11/20 09:02:20;;;;;;;9.60;5.40;;;8.50;99.90;;;9.27;100.00;99132.97;5069598;28;20449;-83
2021/11/20 09:04:59;;;;;;;9.60;5.67;;;8.60;99.90;;;9.31;100.00;99131.69;5071289;28;20803;-83
2021/11/20 09:07:36;;;;;;;10.60;5.93;;;8.60;99.90;;;9.31;100.00;99126.47;5071002;28;20464;-83
2021/11/20 09:10:14;;;;;;;11.83;5.70;;;8.50;99.90;;;9.33;100.00;99127.16;5069987;28;20451;-83
2021/11/20 09:12:47;;;;;;;10.00;6.20;;;8.50;99.90;;;9.37;100.00;99133.69;5063326;28;20444;-83
2021/11/20 09:15:24;;;;;;;9.37;5.77;;;8.60;99.90;;;9.42;100.00;99133.25;5064719;28;20998;-83
2021/11/20 09:17:54;;;;;;;14.50;6.40;;;8.70;99.90;;;9.45;100.00;99131.16;5065589;28;20464;-83
2021/11/20 09:20:25;;;;;;;11.17;5.60;;;8.80;99.90;;;9.49;100.00;99132.50;5070818;28;20491;-83
2021/11/20 09:22:53;;;;;;;8.23;5.57;;;8.80;99.90;;;9.53;100.00;99126.00;5070794;28;20449;-83
2021/11/20 09:25:23;;;;;;;7.53;5.83;;;8.80;99.90;;;9.58;100.00;99128.13;5070642;28;20502;-83
2021/11/20 09:28:15;;;;;;;19.73;6.90;;;8.80;99.90;;;9.60;100.00;99124.41;5070431;28;20543;-83
2021/11/20 09:30:47;;;;;;;7.53;5.87;;;8.90;99.90;;;9.66;100.00;99128.19;5068085;28;20510;-83
2021/11/20 09:33:20;;;;;;;9.80;7.17;;;8.90;99.90;;;9.71;100.00;99109.44;5065488;28;20476;-83
2021/11/20 09:35:49;;;;;;;9.53;7.93;;;9.00;99.90;;;9.75;100.00;99116.00;5066205;28;20505;-83
2021/11/20 09:38:22;;;;;;;15.83;9.30;;;9.00;99.90;;;9.78;100.00;99110.47;5070364;28;20453;-83
2021/11/20 09:40:57;;;;;;;14.17;7.73;;;9.00;99.90;;;9.82;100.00;99115.19;5061743;28;20893;-83
2021/11/20 09:43:29;;;;;;;20.20;9.90;;;9.10;99.90;;;9.88;100.00;99111.16;5067213;28;20467;-84
2021/11/20 09:46:10;;;;;;;11.97;8.90;;;9.20;99.90;;;9.92;100.00;99112.50;5069833;28;20542;-83
2021/11/20 09:48:44;;;;;;;15.30;10.17;;;9.30;99.90;;;9.95;100.00;99106.94;5069660;28;20444;-83
2021/11/20 09:51:21;;;;;;;12.57;9.20;;;9.30;99.90;;;9.97;100.00;99097.97;5069176;28;20478;-83
2021/11/20 09:53:49;;;;;;;12.43;8.80;;;9.30;99.90;;;10.03;100.00;99094.72;5069884;28;20502;-83
2021/11/20 09:56:24;;;;;;;13.10;8.67;;;9.40;99.90;;;10.05;100.00;99091.97;5061560;28;20929;-83
2021/11/20 09:59:01;;;;;;;14.23;8.40;;;9.50;99.90;;;10.04;100.00;99095.56;5070035;28;20530;-83
2021/11/20 10:01:49;;;;;;;11.40;8.30;;;9.60;99.90;;;10.09;100.00;99098.53;5065257;28;20505;-83
2021/11/20 10:04:27;;;;;;;13.53;8.70;;;9.60;99.90;;;10.13;100.00;99083.34;5057409;28;20535;-83
2021/11/20 10:07:15;;;;;;;13.13;8.03;;;9.60;99.90;;;10.17;100.00;99089.94;5066408;28;20444;-84
2021/11/20 10:09:51;;;;;;;9.40;7.83;;;9.60;99.90;;;10.21;100.00;99092.03;5064405;28;20461;-83
2021/11/20 10:12:32;;;;;;;14.53;9.13;;;9.80;99.90;;;10.23;100.00;99079.66;5069944;28;20448;-83
2021/11/20 10:15:09;;;;;;;12.83;7.23;;;9.70;99.90;;;10.20;100.00;99074.75;5069684;28;20440;-83
2021/11/20 10:17:44;;;;;;;10.87;8.50;;;9.60;99.90;;;10.26;100.00;99079.34;5069566;28;20518;-82
2021/11/20 10:20:29;;;;;;;11.60;7.13;;;9.70;99.90;;;10.28;100.00;99074.75;5069704;28;20850;-83
2021/11/20 10:23:26;;;;;;;13.43;9.57;;;9.80;99.90;;;10.36;100.00;99069.56;5068690;28;20448;-83
2021/11/20 10:26:14;;;;;;;10.67;7.80;;;9.80;99.90;;;10.40;100.00;99065.63;5058153;28;20453;-84
2021/11/20 10:29:10;;;;;;;10.67;8.33;;;9.90;99.90;;;10.44;100.00;99061.72;5069779;28;20444;-83
2021/11/20 10:31:43;;;;;;;9.40;7.50;;;10.00;99.90;;;10.47;100.00;99055.34;5066990;28;20448;-83
2021/11/20 10:34:23;;;;;;;10.27;7.53;;;10.00;99.90;;;10.47;100.00;99050.94;5069568;28;20444;-84
2021/11/20 10:37:13;;;;;;;12.43;8.77;;;10.00;99.90;;;10.51;100.00;99036.56;5063362;28;20464;-83
2021/11/20 10:39:50;;;;;;;13.27;8.93;;;10.00;99.90;;;10.54;100.00;99040.66;5061188;28;20833;-83
2021/11/20 10:42:24;;;;;;;10.60;7.40;;;10.00;99.90;;;10.53;100.00;99034.59;5069268;28;20482;-83
2021/11/20 10:45:10;;;;;;;11.50;8.27;;;9.90;99.90;;;10.56;100.00;99030.84;5068335;28;21303;-83